Time;durP1;ratioP1;P1;durP2;ratioP2;P2;SDS_P1;SDS_P2;PMS_P1;PMS_P2;Temp;Humidity;BMP_temperature;BMP_pressure;BME280_temperature;BME280_humidity;BME280_pressure;Samples;Min_cycle;Max_cycle;Signal;HPM_P1;HPM_P2
2022/04/21 00:00:41;;;;;;;;;6.00;6.00;;;;;22.63;61.83;100722.78;5073913;28;45276;-61
2022/04/21 00:03:08;;;;;;;;;7.00;5.00;;;;;22.63;62.00;100720.09;5068011;27;45460;-60
2022/04/21 00:05:34;;;;;;;;;9.33;6.00;;;;;22.63;61.86;100724.59;5095105;27;45554;-61
2022/04/21 00:08:00;;;;;;;;;6.33;6.00;;;;;22.63;62.06;100716.53;5096929;27;47390;-60
2022/04/21 00:10:25;;;;;;;;;6.33;5.00;;;;;22.62;61.63;100712.97;5095807;27;45779;-60
2022/04/21 00:12:51;;;;;;;;;5.67;5.00;;;;;22.62;61.72;100712.09;5081646;27;45419;-60
2022/04/21 00:15:18;;;;;;;;;6.33;6.33;;;;;22.62;61.84;100701.31;5097002;27;45601;-60
2022/04/21 00:17:43;;;;;;;;;7.00;5.00;;;;;22.62;61.55;100712.09;5096097;27;47292;-60
2022/04/21 00:20:09;;;;;;;;;6.00;5.00;;;;;22.62;61.71;100704.00;5096951;27;45200;-61
2022/04/21 00:25:19;;;;;;;;;4.67;4.67;;;;;22.61;62.04;100707.66;5093413;27;45438;-61
2022/04/21 00:27:45;;;;;;;;;6.00;6.00;;;;;22.61;61.96;100704.97;5087373;27;47117;-61
2022/04/21 00:30:12;;;;;;;;;6.00;5.00;;;;;22.61;62.17;100707.66;5095133;27;45284;-60
2022/04/21 00:32:39;;;;;;;;;6.67;6.00;;;;;22.61;62.00;100697.75;5092785;27;46537;-60
2022/04/21 00:35:06;;;;;;;;;5.00;5.00;;;;;22.61;61.92;100695.06;5096186;27;45711;-61
2022/04/21 00:37:32;;;;;;;;;6.33;6.00;;;;;22.61;61.84;100694.19;5092735;27;46608;-61
2022/04/21 00:39:57;;;;;;;;;5.67;5.00;;;;;22.61;62.16;100689.69;5095727;27;45334;-60
2022/04/21 00:42:23;;;;;;;;;6.00;6.00;;;;;22.61;61.89;100688.81;5096134;27;45357;-61
2022/04/21 00:44:51;;;;;;;;;5.67;5.00;;;;;22.61;61.73;100688.81;5095666;27;45432;-60
2022/04/21 00:47:19;;;;;;;;;4.00;4.00;;;;;22.61;61.94;100683.44;5095920;27;47497;-60
2022/04/21 00:49:45;;;;;;;;;5.67;5.67;;;;;22.60;61.94;100681.69;5096224;27;45513;-60
2022/04/21 00:52:11;;;;;;;;;6.00;4.67;;;;;22.61;62.27;100683.44;5094850;27;45410;-61
2022/04/21 00:54:36;;;;;;;;;8.00;5.33;;;;;22.61;61.87;100678.03;5077792;27;45577;-61
2022/04/21 00:57:03;;;;;;;;;4.00;4.00;;;;;22.59;62.04;100680.81;5096043;27;55924;-60
2022/04/21 00:59:28;;;;;;;;;5.00;5.00;;;;;22.61;62.01;100678.03;5057142;28;45406;-60
2022/04/21 01:04:41;;;;;;;;;8.33;6.67;;;;;22.60;62.00;100673.59;5099705;27;45215;-61
2022/04/21 01:07:10;;;;;;;;;7.00;6.00;;;;;22.59;62.29;100672.72;5099722;27;46599;-60
2022/04/21 01:09:36;;;;;;;;;9.33;7.00;;;;;22.59;62.29;100670.03;5081350;27;45279;-60
2022/04/21 01:12:03;;;;;;;;;7.00;5.00;;;;;22.60;62.04;100668.22;5098269;27;45287;-61
2022/04/21 01:14:29;;;;;;;;;6.33;5.67;;;;;22.60;62.33;100668.22;5079772;27;45166;-60
2022/04/21 01:16:54;;;;;;;;;5.00;5.00;;;;;22.58;62.06;100654.81;5098913;27;47162;-61
2022/04/21 01:19:20;;;;;;;;;7.33;5.00;;;;;22.58;62.12;100653.94;5080576;27;54806;-60
2022/04/21 01:21:45;;;;;;;;;6.67;6.67;;;;;22.58;62.17;100660.19;5096580;27;45318;-61
2022/04/21 01:24:10;;;;;;;;;6.33;6.33;;;;;22.58;62.22;100657.50;5092777;27;45651;-60
2022/04/21 01:26:36;;;;;;;;;5.00;5.00;;;;;22.58;62.17;100654.81;5099458;27;46804;-61
2022/04/21 01:29:03;;;;;;;;;6.00;6.00;;;;;22.57;62.28;100657.56;5075034;27;45220;-61
2022/04/21 01:31:29;;;;;;;;;5.67;5.67;;;;;22.56;61.92;100656.69;5099004;27;45414;-60
2022/04/21 01:33:55;;;;;;;;;5.00;5.00;;;;;22.56;62.30;100647.75;5093760;27;45915;-61
2022/04/21 01:36:20;;;;;;;;;7.00;7.00;;;;;22.56;62.27;100648.63;5099387;27;45539;-61
2022/04/21 01:41:29;;;;;;;;;6.00;6.00;;;;;22.54;61.81;100655.91;5098701;27;45442;-60
2022/04/21 01:43:54;;;;;;;;;6.67;6.67;;;;;22.54;62.01;100647.81;5080277;27;45616;-60
2022/04/21 01:46:20;;;;;;;;;7.67;5.67;;;;;22.55;62.29;100651.38;5098137;27;55926;-61
2022/04/21 01:48:45;;;;;;;;;5.00;5.00;;;;;22.54;62.42;100646.94;5098708;27;45502;-61
2022/04/21 01:51:11;;;;;;;;;3.33;3.00;;;;;22.52;62.64;100638.91;5070063;27;51251;-61
2022/04/21 01:53:36;;;;;;;;;5.00;5.00;;;;;22.52;62.30;100636.22;5095306;27;45949;-60
2022/04/21 01:56:01;;;;;;;;;6.00;6.00;;;;;22.51;62.34;100631.78;5098309;27;45639;-60
2022/04/21 01:58:27;;;;;;;;;7.33;5.00;;;;;22.51;62.32;100633.63;5080136;27;45390;-61
2022/04/21 02:00:52;;;;;;;;;6.00;4.00;;;;;22.51;62.38;100636.31;5098644;27;45288;-60
2022/04/21 02:03:18;;;;;;;;;5.00;5.00;;;;;22.50;62.40;100638.13;5094246;27;45409;-61
2022/04/21 02:05:44;;;;;;;;;6.00;5.00;;;;;22.50;62.42;100627.34;5098598;27;47384;-60
2022/04/21 02:08:09;;;;;;;;;6.33;6.00;;;;;22.49;62.29;100626.47;5087882;27;45519;-60
2022/04/21 02:10:34;;;;;;;;;5.00;4.00;;;;;22.49;62.66;100631.88;5099053;27;45245;-60
2022/04/21 02:13:00;;;;;;;;;6.00;5.00;;;;;22.48;62.59;100630.13;5094597;27;45306;-60
2022/04/21 02:15:26;;;;;;;;;5.33;5.00;;;;;22.49;62.50;100631.00;5098859;27;46433;-60
2022/04/21 02:17:51;;;;;;;;;4.00;4.00;;;;;22.49;62.49;100631.88;5097377;27;45522;-60
2022/04/21 02:20:17;;;;;;;;;5.00;5.00;;;;;22.48;62.88;100621.19;5098545;27;47186;-60
2022/04/21 02:22:43;;;;;;;;;8.00;4.00;;;;;22.46;62.48;100617.66;5098236;27;45617;-60
2022/04/21 02:25:10;;;;;;;;;4.00;4.00;;;;;22.47;62.53;100619.41;5090711;27;46434;-60
2022/04/21 02:27:37;;;;;;;;;6.33;6.33;;;;;22.46;62.25;100623.03;5097886;27;45430;-61
2022/04/21 02:30:03;;;;;;;;;7.00;6.00;;;;;22.46;62.83;100617.66;5094414;27;45480;-60
2022/04/21 02:32:29;;;;;;;;;6.00;6.00;;;;;22.45;62.18;100611.41;5093762;27;45614;-61
2022/04/21 02:34:54;;;;;;;;;4.00;4.00;;;;;22.44;62.27;100615.03;5079902;27;49182;-61
2022/04/21 02:37:21;;;;;;;;;4.00;4.00;;;;;22.43;62.38;100615.09;5098284;27;45533;-60
2022/04/21 02:39:47;;;;;;;;;5.00;5.00;;;;;22.44;62.94;100611.47;5098541;27;45288;-60
2022/04/21 02:42:13;;;;;;;;;7.00;5.00;;;;;22.43;62.56;100604.34;5098299;27;45580;-61
2022/04/21 02:44:38;;;;;;;;;6.33;6.33;;;;;22.42;62.88;100608.81;5098025;27;52054;-61
2022/04/21 02:47:06;;;;;;;;;7.67;5.67;;;;;22.42;62.34;100606.13;5097554;27;45461;-60
2022/04/21 02:49:32;;;;;;;;;8.00;4.00;;;;;22.41;62.51;100606.22;5097992;27;45370;-61
2022/04/21 02:51:58;;;;;;;;;7.00;6.00;;;;;22.41;63.12;100607.06;5095956;27;45429;-60
2022/04/21 02:57:22;;;;;;;;;6.00;6.00;;;;;22.40;62.67;100604.47;5082045;27;45231;-60
2022/04/21 02:59:53;;;;;;;;;7.33;6.33;;;;;22.41;63.02;100604.38;5081850;27;45389;-60
2022/04/21 03:02:19;;;;;;;;;5.67;5.67;;;;;22.42;63.21;100599.88;5079926;27;45575;-60
2022/04/21 03:04:45;;;;;;;;;4.67;4.67;;;;;22.43;62.81;100597.16;5097054;27;46112;-60
2022/04/21 03:07:11;;;;;;;;;4.00;4.00;;;;;22.45;63.01;100594.38;5078897;27;45312;-60
2022/04/21 03:09:37;;;;;;;;;7.67;6.00;;;;;22.47;63.02;100606.81;5079075;27;45450;-60
2022/04/21 03:12:03;;;;;;;;;5.00;5.00;;;;;22.50;62.43;100605.84;5097149;27;45481;-60
2022/04/21 03:14:29;;;;;;;;;5.00;5.00;;;;;22.54;62.38;100598.50;5096591;27;47511;-60
2022/04/21 03:16:55;;;;;;;;;5.67;4.67;;;;;22.54;62.68;100593.13;5097292;27;45543;-61
2022/04/21 03:19:20;;;;;;;;;7.00;5.67;;;;;22.56;62.91;100592.13;5097247;27;45603;-61
2022/04/21 03:24:30;;;;;;;;;6.00;6.00;;;;;22.59;62.32;100580.34;5096355;27;45622;-61
2022/04/21 03:26:56;;;;;;;;;6.00;5.00;;;;;22.60;62.46;100579.41;5078776;27;45430;-60
2022/04/21 03:29:21;;;;;;;;;3.00;3.00;;;;;22.61;62.16;100568.56;5096585;27;48425;-60
2022/04/21 03:31:48;;;;;;;;;5.00;5.00;;;;;22.63;62.44;100569.38;5079068;27;45557;-60
2022/04/21 03:34:15;;;;;;;;;4.00;4.00;;;;;22.63;62.43;100579.25;5096467;27;46276;-60
2022/04/21 03:36:44;;;;;;;;;5.00;5.00;;;;;22.64;62.22;100567.59;5097302;27;45266;-60
2022/04/21 03:39:10;;;;;;;;;5.00;5.00;;;;;22.64;61.78;100581.91;5097107;27;45651;-60
2022/04/21 03:41:35;;;;;;;;;5.00;3.33;;;;;22.65;62.09;100564.81;5077990;27;45319;-60
2022/04/21 03:44:00;;;;;;;;;5.00;5.00;;;;;22.64;61.94;100572.97;5096485;27;52987;-60
2022/04/21 03:46:26;;;;;;;;;5.67;4.33;;;;;22.65;62.19;100572.88;5096760;27;45469;-60
2022/04/21 03:48:51;;;;;;;;;6.33;4.00;;;;;22.66;62.34;100571.06;5096978;27;45346;-60
2022/04/21 03:51:16;;;;;;;;;3.33;3.33;;;;;;;;5097119;27;45600;-60
2022/04/21 03:53:42;;;;;;;;;4.00;4.00;;;;;;;;5096692;27;47290;-60
2022/04/21 03:56:07;;;;;;;;;1.00;1.00;;;;;22.66;61.68;100563.00;5090205;27;45926;-60
2022/04/21 03:58:33;;;;;;;;;4.33;4.33;;;;;22.67;62.01;100572.81;5077979;27;47922;-60
2022/04/21 04:00:58;;;;;;;;;5.00;4.00;;;;;22.68;61.92;100574.56;5097288;27;45490;-61
2022/04/21 04:03:24;;;;;;;;;4.00;4.00;;;;;22.67;61.81;100575.50;5096447;27;47275;-60
2022/04/21 04:05:49;;;;;;;;;7.67;5.00;;;;;22.67;61.81;100580.88;5077742;27;54221;-60
2022/04/21 04:11:00;;;;;;;;;4.67;4.33;;;;;;;;5087349;27;45715;-61
2022/04/21 04:13:26;;;;;;;;;4.00;4.00;;;;;22.64;61.72;100575.66;5091046;27;47607;-60
2022/04/21 04:15:52;;;;;;;;;5.00;5.00;;;;;22.65;61.48;100578.28;5095885;27;45356;-61
2022/04/21 04:18:19;;;;;;;;;5.00;4.00;;;;;22.65;61.32;100583.66;5097240;27;45380;-60
2022/04/21 04:20:45;;;;;;;;;3.67;3.67;;;;;22.65;61.62;100572.03;5097500;27;45449;-61
2022/04/21 04:23:14;;;;;;;;;3.00;3.00;;;;;22.65;61.59;100577.41;5097151;27;46259;-61
2022/04/21 04:25:39;;;;;;;;;4.67;3.00;;;;;22.66;61.57;100579.16;5087825;27;45525;-60
2022/04/21 04:28:05;;;;;;;;;5.00;3.00;;;;;22.65;61.29;100574.72;5079078;27;45863;-60
2022/04/21 04:30:31;;;;;;;;;4.00;4.00;;;;;22.64;61.60;100576.53;5094730;27;45426;-60
2022/04/21 04:32:57;;;;;;;;;4.00;4.00;;;;;22.65;61.08;100585.47;5095515;27;47066;-60
2022/04/21 04:35:25;;;;;;;;;4.33;3.33;;;;;22.63;61.37;100580.13;5096244;27;45971;-60
2022/04/21 04:37:52;;;;;;;;;5.00;3.67;;;;;22.63;61.46;100581.94;5095890;27;45362;-60
2022/04/21 04:40:18;;;;;;;;;3.67;3.67;;;;;22.63;61.15;100585.50;5095781;27;45465;-60
2022/04/21 04:42:43;;;;;;;;;5.00;5.00;;;;;22.63;61.50;100592.72;5095308;27;46492;-60
2022/04/21 04:47:52;;;;;;;;;3.00;3.00;;;;;22.62;61.45;100594.53;5090885;27;45362;-60
2022/04/21 04:50:18;;;;;;;;;5.00;3.00;;;;;22.61;61.52;100597.31;5076882;27;45636;-61
2022/04/21 04:52:44;;;;;;;;;4.00;3.33;;;;;22.61;61.48;100600.00;5096165;27;47427;-60
2022/04/21 04:55:10;;;;;;;;;4.00;4.00;;;;;22.60;61.32;100603.63;5078185;27;45473;-60
2022/04/21 04:57:35;;;;;;;;;4.67;4.67;;;;;22.60;61.62;100604.50;5095131;27;45232;-60
2022/04/21 05:00:05;;;;;;;;;3.67;3.00;;;;;22.60;61.30;100617.97;5092085;27;46313;-61
2022/04/21 05:02:30;;;;;;;;;5.00;3.00;;;;;22.60;61.27;100609.00;5085898;27;46928;-60
2022/04/21 05:04:56;;;;;;;;;5.00;4.00;;;;;22.60;61.31;100607.19;5194932;22;46088;-60
2022/04/21 05:07:21;;;;;;;;;3.00;3.00;;;;;22.58;61.20;100609.06;5075891;27;45424;-60
2022/04/21 05:09:47;;;;;;;;;4.67;4.00;;;;;22.59;61.29;100616.22;5074257;27;45570;-60
2022/04/21 05:12:12;;;;;;;;;4.00;4.00;;;;;22.57;61.37;100606.44;5074251;28;46039;-61
2022/04/21 05:14:37;;;;;;;;;6.00;3.67;;;;;22.58;61.37;100608.19;5075413;28;45512;-61
2022/04/21 05:17:03;;;;;;;;;3.00;3.00;;;;;22.57;61.34;100611.81;5076100;27;47860;-60
2022/04/21 05:19:29;;;;;;;;;4.33;4.33;;;;;22.57;61.15;100611.81;5075107;27;45517;-61
2022/04/21 05:22:02;;;;;;;;;4.00;4.00;;;;;22.56;61.33;100610.94;5075641;27;47304;-61
2022/04/21 05:24:30;;;;;;;;;3.33;3.00;;;;;22.56;61.53;100610.06;5075284;27;45978;-60
2022/04/21 05:26:56;;;;;;;;;7.33;4.00;;;;;22.56;61.41;100613.63;5074802;27;45476;-60
2022/04/21 05:32:07;;;;;;;;;4.33;4.33;;;;;22.54;61.38;100612.84;5075143;28;45401;-60
2022/04/21 05:34:33;;;;;;;;;7.33;4.00;;;;;22.55;61.49;100605.63;5072315;28;45531;-60
2022/04/21 05:36:59;;;;;;;;;5.67;4.00;;;;;22.55;61.08;100605.63;5091055;27;45349;-61
2022/04/21 05:39:25;;;;;;;;;5.00;4.33;;;;;22.55;61.16;100608.34;5075090;27;45253;-61
2022/04/21 05:41:52;;;;;;;;;4.00;4.00;;;;;22.54;61.32;100598.50;5073846;27;46254;-61
2022/04/21 05:44:18;;;;;;;;;5.00;3.67;;;;;22.55;61.34;100608.34;5074883;27;45263;-61
2022/04/21 05:46:44;;;;;;;;;6.00;3.00;;;;;22.54;61.07;100601.22;5074473;27;45333;-61
2022/04/21 05:49:10;;;;;;;;;3.00;3.00;;;;;22.53;61.45;100604.81;5077550;27;45410;-60
2022/04/21 05:51:36;;;;;;;;;3.33;3.33;;;;;22.54;61.41;100599.38;5078371;27;47654;-61
2022/04/21 05:54:04;;;;;;;;;4.00;4.00;;;;;22.53;61.59;100602.13;5076999;27;45538;-60
2022/04/21 05:56:30;;;;;;;;;5.00;4.00;;;;;22.53;61.42;100599.44;5077820;27;45451;-61
2022/04/21 05:58:55;;;;;;;;;4.67;4.67;;;;;22.52;60.83;100592.31;5078149;27;45379;-61
2022/04/21 06:01:21;;;;;;;;;4.00;4.00;;;;;22.52;61.36;100601.25;5093806;27;46311;-60
2022/04/21 06:03:46;;;;;;;;;3.33;3.33;;;;;22.49;61.35;100596.88;5078747;27;45437;-63
2022/04/21 06:06:12;;;;;;;;;4.00;4.00;;;;;22.51;61.30;100602.19;5077061;27;45463;-62
2022/04/21 06:08:38;;;;;;;;;5.00;3.33;;;;;22.49;61.46;100594.19;5075005;27;45521;-62
2022/04/21 06:11:03;;;;;;;;;5.00;3.33;;;;;22.49;61.17;100591.50;5076379;28;46824;-63
2022/04/21 06:13:30;;;;;;;;;4.00;4.00;;;;;22.48;61.06;100588.88;5076358;28;45450;-63
2022/04/21 06:15:56;;;;;;;;;3.67;2.33;;;;;22.47;61.05;100589.81;5075276;28;45598;-60
2022/04/21 06:18:23;;;;;;;;;4.67;4.67;;;;;22.47;61.09;100589.81;5077835;28;45570;-62
2022/04/21 06:20:50;;;;;;;;;7.00;4.00;;;;;22.48;61.01;100596.97;5077930;27;47334;-61
2022/04/21 06:23:16;;;;;;;;;5.00;4.00;;;;;22.47;61.49;100598.75;5077829;28;45586;-60
2022/04/21 06:25:42;;;;;;;;;3.00;3.00;;;;;22.47;60.95;100589.81;5077786;27;45430;-61
2022/04/21 06:28:07;;;;;;;;;4.00;4.00;;;;;22.46;61.07;100594.31;5076217;27;45558;-61
2022/04/21 06:30:33;;;;;;;;;4.67;3.00;;;;;22.45;60.81;100592.56;5077556;28;51718;-61
2022/04/21 06:32:59;;;;;;;;;4.67;3.67;;;;;22.47;60.88;100596.06;5076743;27;60329;-61
2022/04/21 06:35:25;;;;;;;;;4.00;4.00;;;;;22.49;61.27;100594.19;5077430;27;45208;-61
2022/04/21 06:37:52;;;;;;;;;4.00;4.00;;;;;22.52;60.74;100598.56;5078104;27;45575;-61
2022/04/21 06:40:17;;;;;;;;;5.00;5.00;;;;;22.54;60.70;100582.38;5077335;27;46441;-61
2022/04/21 06:42:43;;;;;;;;;3.67;3.67;;;;;22.57;61.02;100587.59;5077573;27;45401;-61
2022/04/21 06:48:02;;;;;;;;;5.00;5.00;;;;;22.62;60.76;100588.28;5077125;28;45399;-61
2022/04/21 06:50:28;;;;;;;;;5.33;4.00;;;;;22.61;60.53;100576.66;5077774;27;46787;-62
2022/04/21 06:52:53;;;;;;;;;4.00;4.00;;;;;;;;5077718;27;45883;-62
2022/04/21 06:55:18;;;;;;;;;4.00;4.00;;;;;22.69;60.66;100581.69;5078089;28;45445;-61
2022/04/21 06:57:43;;;;;;;;;4.00;4.00;;;;;22.68;60.41;100578.13;5075852;28;57591;-62
2022/04/21 07:00:09;;;;;;;;;3.00;3.00;;;;;22.70;60.38;100575.38;5076583;27;47390;-62
2022/04/21 07:02:38;;;;;;;;;3.67;3.00;;;;;22.71;60.49;100580.69;5077592;27;45454;-62
2022/04/21 07:05:05;;;;;;;;;3.33;3.33;;;;;22.73;60.28;100578.81;5077560;27;45442;-62
2022/04/21 07:07:30;;;;;;;;;4.00;4.00;;;;;22.74;60.25;100579.66;5077776;27;45260;-62
2022/04/21 07:09:56;;;;;;;;;6.00;3.33;;;;;22.73;60.18;100570.72;5075435;28;46633;-61
2022/04/21 07:12:32;;;;;;;;;4.33;4.33;;;;;22.74;60.27;100579.66;5077474;27;45828;-62
2022/04/21 07:14:59;;;;;;;;;5.00;4.00;;;;;22.76;60.19;100583.19;5077055;28;45279;-61
2022/04/21 07:17:24;;;;;;;;;5.00;4.00;;;;;22.75;59.93;100579.63;5075990;27;45504;-61
2022/04/21 07:19:50;;;;;;;;;4.00;4.00;;;;;22.77;60.26;100576.00;5076539;27;46036;-61
2022/04/21 07:22:15;;;;;;;;;3.00;3.00;;;;;22.75;60.41;100568.88;5076404;27;46152;-61
2022/04/21 07:24:41;;;;;;;;;4.00;4.00;;;;;22.78;59.94;100577.72;5076694;27;60867;-61
2022/04/21 07:27:06;;;;;;;;;4.67;4.00;;;;;22.78;60.09;100573.22;5077253;28;45216;-61
2022/04/21 07:29:32;;;;;;;;;3.33;3.33;;;;;22.78;60.12;100572.34;5076676;27;46334;-62
2022/04/21 07:31:57;;;;;;;;;5.00;3.00;;;;;22.77;60.19;100566.09;5077234;27;45417;-61
2022/04/21 07:34:26;;;;;;;;;3.33;3.33;;;;;22.77;59.89;100560.72;5077115;27;48188;-61
2022/04/21 07:36:51;;;;;;;;;4.00;4.00;;;;;22.78;59.97;100566.97;5077402;27;45473;-62
2022/04/21 07:39:18;;;;;;;;;4.00;4.00;;;;;22.77;59.67;100563.41;5076816;28;46524;-61
2022/04/21 07:41:43;;;;;;;;;5.00;3.33;;;;;22.76;60.03;100556.28;5077332;28;45381;-61
2022/04/21 07:44:09;;;;;;;;;4.67;4.67;;;;;22.76;60.04;100553.59;5076932;27;45578;-61
2022/04/21 07:46:36;;;;;;;;;5.00;3.33;;;;;22.74;59.86;100550.06;5075253;28;57639;-62
2022/04/21 07:51:45;;;;;;;;;3.33;3.33;;;;;22.73;59.84;100554.56;5076419;28;45660;-62
2022/04/21 07:54:10;;;;;;;;;2.00;2.00;;;;;22.73;59.90;100553.69;5076423;28;59890;-61
2022/04/21 07:56:36;;;;;;;;;3.00;3.00;;;;;22.73;60.24;100556.41;5076260;27;57760;-61
2022/04/21 07:59:02;;;;;;;;;4.00;4.00;;;;;22.72;59.95;100551.97;5076790;27;47245;-61
2022/04/21 08:01:27;;;;;;;;;3.33;3.33;;;;;22.71;59.93;100548.41;5076128;27;46457;-61
2022/04/21 08:03:52;;;;;;;;;3.00;3.00;;;;;22.70;59.82;100540.41;5076712;27;45613;-61
2022/04/21 08:06:18;;;;;;;;;4.33;3.67;;;;;22.69;59.82;100542.22;5076420;27;45574;-61
2022/04/21 08:08:43;;;;;;;;;3.00;3.00;;;;;22.68;59.98;100540.44;5075367;27;46190;-61
2022/04/21 08:11:09;;;;;;;;;4.33;4.00;;;;;22.68;59.75;100540.44;5075657;28;45203;-61
2022/04/21 08:13:34;;;;;;;;;5.00;4.33;;;;;22.68;59.81;100548.50;5076613;27;45279;-61
2022/04/21 08:15:59;;;;;;;;;2.67;2.67;;;;;22.67;59.77;100541.38;5076109;28;45276;-61
2022/04/21 08:18:25;;;;;;;;;5.00;3.00;;;;;22.66;59.87;100541.47;5075901;28;63516;-62
2022/04/21 08:20:53;;;;;;;;;5.00;4.00;;;;;22.65;59.55;100545.97;5076415;28;45515;-61
2022/04/21 08:23:18;;;;;;;;;4.67;3.33;;;;;22.66;59.84;100544.16;5076654;27;45325;-61
2022/04/21 08:33:55;;;;;;;;;6.00;4.67;;;;;22.63;59.72;100546.97;5076438;28;45460;-61
2022/04/21 08:36:20;;;;;;;;;5.00;4.00;;;;;22.61;60.04;100547.03;5075570;27;50866;-61
2022/04/21 08:38:47;;;;;;;;;3.00;3.00;;;;;22.62;59.88;100545.22;5075675;28;68072;-61
2022/04/21 08:41:17;;;;;;;;;3.00;3.00;;;;;22.61;60.23;100554.25;5075196;28;45499;-62
2022/04/21 08:43:46;;;;;;;;;5.33;4.00;;;;;22.61;60.18;100544.34;5075722;28;45271;-61
2022/04/21 08:46:19;;;;;;;;;3.33;2.67;;;;;22.61;60.22;100547.03;5075784;27;46033;-61
2022/04/21 08:48:47;;;;;;;;;5.00;3.00;;;;;22.59;60.13;100540.88;5075758;27;46546;-62
2022/04/21 08:51:13;;;;;;;;;4.67;4.00;;;;;22.61;60.10;100548.88;5075917;27;45435;-62
2022/04/21 08:53:40;;;;;;;;;4.00;4.00;;;;;22.60;60.15;100542.59;5076076;27;45416;-62
2022/04/21 08:56:06;;;;;;;;;3.00;3.00;;;;;22.60;59.91;100541.72;5075923;28;45507;-62
2022/04/21 08:58:31;;;;;;;;;4.00;4.00;;;;;22.59;60.52;100545.38;5075297;27;46491;-61
2022/04/21 09:00:57;;;;;;;;;4.00;3.00;;;;;22.59;60.04;100545.38;5075520;28;62371;-61
2022/04/21 09:03:23;;;;;;;;;4.00;4.00;;;;;22.58;60.28;100549.84;5074496;28;45239;-62
2022/04/21 09:05:48;;;;;;;;;4.00;4.00;;;;;22.58;60.12;100547.16;5076230;27;45437;-61
2022/04/21 09:08:22;;;;;;;;;4.00;4.00;;;;;22.58;60.17;100544.47;5075670;27;45509;-61
2022/04/21 09:11:01;;;;;;;;;5.00;5.00;;;;;22.57;60.12;100542.72;5074894;28;45492;-61
2022/04/21 09:13:40;;;;;;;;;3.00;3.00;;;;;22.57;60.44;100541.84;5073959;27;45476;-61
2022/04/21 09:16:10;;;;;;;;;5.00;4.00;;;;;22.57;60.29;100539.16;5075850;27;45324;-62
2022/04/21 09:18:40;;;;;;;;;4.00;3.00;;;;;22.56;60.28;100540.09;5075247;27;47559;-61
2022/04/21 09:21:07;;;;;;;;;4.00;4.00;;;;;22.56;60.21;100538.28;5075710;27;45304;-61
2022/04/21 09:23:33;;;;;;;;;4.00;4.00;;;;;22.55;60.17;100539.25;5076345;27;45180;-62
2022/04/21 09:26:06;;;;;;;;;4.00;4.00;;;;;22.54;60.35;100529.41;5078373;28;45511;-61
2022/04/21 09:28:32;;;;;;;;;3.00;3.00;;;;;22.55;60.30;100538.38;5079149;27;45604;-62
2022/04/21 09:31:02;;;;;;;;;5.00;3.00;;;;;22.54;60.31;100536.63;5079390;27;45438;-62
2022/04/21 09:33:35;;;;;;;;;3.33;3.00;;;;;22.54;60.49;100531.25;5079156;27;45535;-61
2022/04/21 09:36:03;;;;;;;;;5.00;4.00;;;;;22.54;59.99;100528.56;5078134;28;45435;-61
2022/04/21 09:38:29;;;;;;;;;5.00;4.00;;;;;22.55;60.24;100524.91;5078957;27;47461;-62
2022/04/21 09:40:54;;;;;;;;;5.00;5.00;;;;;22.54;60.37;100517.78;5078580;27;45358;-61
2022/04/21 09:43:27;;;;;;;;;4.00;4.00;;;;;22.55;60.13;100516.84;5078872;27;45377;-61
2022/04/21 09:46:08;;;;;;;;;3.33;3.33;;;;;22.55;60.75;100519.53;5077720;28;45212;-62
2022/04/21 09:48:33;;;;;;;;;4.00;4.00;;;;;22.54;60.27;100513.28;5078594;27;46339;-61
2022/04/21 09:51:12;;;;;;;;;4.00;4.00;;;;;22.54;60.21;100510.59;5093986;27;45540;-62
2022/04/21 09:53:59;;;;;;;;;3.00;3.00;;;;;22.55;59.98;100512.31;5078582;27;45294;-61
2022/04/21 09:56:39;;;;;;;;;5.00;5.00;;;;;22.54;60.53;100497.13;5079010;27;45635;-61
2022/04/21 09:59:08;;;;;;;;;3.00;3.00;;;;;22.54;59.96;100510.59;5078113;27;47360;-61
2022/04/21 10:01:36;;;;;;;;;3.67;3.67;;;;;22.53;60.38;100497.16;5078281;27;45309;-61
2022/04/21 10:04:05;;;;;;;;;5.00;4.00;;;;;22.54;60.21;100498.94;5094456;27;45465;-61
2022/04/21 10:06:31;;;;;;;;;4.67;4.00;;;;;22.54;60.34;100499.81;5078370;27;45485;-61
2022/04/21 10:08:56;;;;;;;;;4.00;4.00;;;;;22.54;60.22;100498.94;5078226;27;47262;-61
2022/04/21 10:11:24;;;;;;;;;3.33;3.33;;;;;22.55;59.96;100503.38;5077483;27;62595;-61
2022/04/21 10:13:54;;;;;;;;;4.33;4.00;;;;;22.55;60.17;100500.69;5078484;27;45277;-61
2022/04/21 10:16:24;;;;;;;;;6.00;4.00;;;;;22.55;60.09;100503.38;5078634;27;45326;-63
2022/04/21 10:18:52;;;;;;;;;4.67;3.67;;;;;22.54;60.09;100491.75;5077969;27;47260;-61
2022/04/21 10:21:38;;;;;;;;;4.33;4.33;;;;;22.55;60.25;100487.25;5078293;27;45425;-62
2022/04/21 10:24:04;;;;;;;;;5.00;4.00;;;;;22.55;60.34;100489.94;5078784;27;45267;-61
2022/04/21 10:26:41;;;;;;;;;5.00;5.00;;;;;22.56;60.13;100478.22;5076996;28;45621;-61
2022/04/21 10:29:10;;;;;;;;;4.33;4.33;;;;;22.56;60.01;100475.53;5077673;28;46599;-61
2022/04/21 10:32:04;;;;;;;;;5.33;4.33;;;;;22.57;60.05;100470.06;5078096;27;45242;-62
2022/04/21 10:34:42;;;;;;;;;3.33;3.33;;;;;22.55;59.98;100471.97;5076630;27;45336;-61
2022/04/21 10:37:20;;;;;;;;;3.67;3.67;;;;;22.56;59.81;100467.44;5075464;27;45445;-62
2022/04/21 10:40:07;;;;;;;;;5.33;4.00;;;;;22.56;60.20;100454.00;5077572;27;46921;-62
2022/04/21 10:43:03;;;;;;;;;4.00;4.00;;;;;22.56;59.66;100462.06;5077561;27;45344;-61
2022/04/21 10:45:32;;;;;;;;;4.00;4.00;;;;;22.55;59.88;100457.63;5077999;27;45465;-61
2022/04/21 10:48:08;;;;;;;;;4.00;4.00;;;;;22.55;60.13;100465.72;5077025;28;45258;-62
2022/04/21 10:50:35;;;;;;;;;6.67;4.00;;;;;22.54;60.02;100461.28;5078054;27;47736;-62
2022/04/21 10:58:35;;;;;;;;;4.67;4.00;;;;;22.54;59.72;100450.50;5076928;28;45199;-62
2022/04/21 11:01:18;;;;;;;;;3.00;3.00;;;;;22.51;59.81;100448.81;5077651;28;47589;-62
2022/04/21 11:03:45;;;;;;;;;5.00;5.00;;;;;22.51;59.92;100448.81;5076865;27;45503;-62
2022/04/21 11:06:14;;;;;;;;;3.00;3.00;;;;;22.52;60.09;100449.69;5075364;28;45299;-62
2022/04/21 11:08:40;;;;;;;;;3.67;3.67;;;;;22.51;59.68;100451.50;5076760;27;45485;-62
2022/04/21 11:11:06;;;;;;;;;3.00;3.00;;;;;22.52;59.94;100442.50;5077515;27;47331;-62
2022/04/21 11:13:42;;;;;;;;;4.00;3.00;;;;;22.51;59.90;100447.94;5077965;27;45337;-62
2022/04/21 11:16:08;;;;;;;;;7.67;5.00;;;;;22.51;59.94;100447.94;5075848;28;45336;-62
2022/04/21 11:18:33;;;;;;;;;4.00;4.00;;;;;22.51;60.09;100440.75;5077825;27;45385;-62
2022/04/21 11:21:26;;;;;;;;;4.00;4.00;;;;;22.50;59.61;100433.63;5077330;27;45544;-62
2022/04/21 11:23:51;;;;;;;;;4.67;4.00;;;;;22.51;59.94;100426.41;5077652;27;45469;-62
2022/04/21 11:26:17;;;;;;;;;3.67;3.67;;;;;22.49;59.64;100429.19;5077147;28;45515;-62
2022/04/21 11:28:44;;;;;;;;;5.67;4.33;;;;;22.49;59.90;100421.13;5077931;27;46403;-62
2022/04/21 11:31:10;;;;;;;;;4.00;4.00;;;;;22.50;59.62;100417.47;5077020;27;47273;-62
2022/04/21 11:33:38;;;;;;;;;4.00;3.00;;;;;22.49;59.83;100422.00;5076148;28;45951;-62
2022/04/21 11:36:08;;;;;;;;;6.33;3.67;;;;;22.50;59.90;100422.84;5077142;27;45824;-62
2022/04/21 11:38:35;;;;;;;;;3.00;3.00;;;;;22.49;59.83;100413.03;5088831;27;45481;-62
2022/04/21 11:41:04;;;;;;;;;5.00;4.67;;;;;22.49;59.70;100421.13;5076961;27;46396;-62
2022/04/21 11:43:30;;;;;;;;;3.00;3.00;;;;;22.49;59.83;100424.69;5076631;27;45500;-62
2022/04/21 11:46:00;;;;;;;;;3.00;3.00;;;;;22.48;59.78;100417.56;5076680;27;45388;-61
2022/04/21 11:48:34;;;;;;;;;3.00;3.00;;;;;22.48;59.40;100424.75;5077803;27;45317;-62
2022/04/21 11:51:00;;;;;;;;;4.00;4.00;;;;;22.48;59.86;100420.25;5077379;27;47337;-62
2022/04/21 11:53:28;;;;;;;;;3.00;3.00;;;;;22.48;59.65;100414.88;5076556;27;45591;-62
2022/04/21 11:55:54;;;;;;;;;3.00;3.00;;;;;22.49;59.46;100411.22;5076285;27;45538;-62
2022/04/21 11:58:29;;;;;;;;;4.33;4.00;;;;;22.49;59.49;100413.03;5076532;28;56465;-62
2022/04/21 12:06:36;;;;;;;;;3.00;3.00;;;;;22.47;59.42;100396.94;5077903;27;45436;-62
2022/04/21 12:09:02;;;;;;;;;3.67;3.67;;;;;22.48;59.54;100406.78;5074676;28;45697;-62
2022/04/21 12:11:28;;;;;;;;;3.00;3.00;;;;;22.47;59.49;100396.94;5075634;28;46887;-62
2022/04/21 12:13:54;;;;;;;;;3.67;3.67;;;;;22.48;59.41;100398.72;5090487;27;45573;-62